Time;durP1;ratioP1;P1;durP2;ratioP2;P2;SDS_P1;SDS_P2;PMS_P1;PMS_P2;Temp;Humidity;BMP_temperature;BMP_pressure;BME280_temperature;BME280_humidity;BME280_pressure;Samples;Min_cycle;Max_cycle;Signal;HPM_P1;HPM_P2
2022/03/21 06:49:52;;;;;;;12.73;3.45;;;;;;;;;;4990503;28;20049;-88
2022/03/21 06:52:19;;;;;;;9.32;3.60;;;;;;;;;;4986827;28;20397;-87
2022/03/21 06:54:48;;;;;;;10.50;3.30;;;;;;;;;;4984983;28;20030;-90
2022/03/21 06:57:16;;;;;;;8.35;3.47;;;;;;;;;;4992196;28;20478;-88
2022/03/21 06:59:45;;;;;;;10.43;3.70;;;;;;;;;;4987125;28;20029;-88
2022/03/21 07:02:12;;;;;;;9.32;4.30;;;;;;;;;;4984274;28;20030;-89
2022/03/21 07:04:39;;;;;;;11.32;4.60;;;;;;;;;;4991900;28;20525;-88
2022/03/21 07:07:06;;;;;;;8.52;3.80;;;;;;;;;;4994098;28;20026;-90
2022/03/21 07:09:50;;;;;;;10.82;4.40;;;;;;;;;;4987982;28;20486;-88
2022/03/21 07:12:18;;;;;;;10.35;4.15;;;;;;;;;;4992589;28;20053;-88
2022/03/21 07:14:46;;;;;;;10.32;4.82;;;;;;;;;;4982280;28;20026;-88
2022/03/21 07:17:12;;;;;;;10.73;4.32;;;;;;;;;;4993554;28;20022;-88
2022/03/21 07:20:06;;;;;;;14.55;4.70;;;;;;;;;;4987905;28;20109;-89
2022/03/21 07:22:33;;;;;;;9.68;4.75;;;;;;;;;;4975282;28;20027;-88
2022/03/21 07:25:03;;;;;;;11.45;5.45;;;;;;;;;;4989531;28;20462;-89
2022/03/21 07:27:30;;;;;;;13.63;4.90;;;;;;;;;;4992819;28;20421;-88
2022/03/21 07:30:01;;;;;;;9.93;4.53;;;;;;;;;;4993302;28;20033;-88
2022/03/21 07:32:27;;;;;;;13.70;5.15;;;;;;;;;;4983039;28;20169;-87
2022/03/21 07:34:54;;;;;;;10.27;4.65;;;;;;;;;;4996019;28;20031;-89
2022/03/21 07:37:20;;;;;;;9.38;4.75;;;;;;;;;;4978028;28;20489;-89
2022/03/21 07:40:05;;;;;;;11.77;4.40;;;;;;;;;;4992128;28;20030;-88
2022/03/21 07:42:33;;;;;;;7.88;3.97;;;;;;;;;;4979037;28;20105;-88
2022/03/21 07:47:53;;;;;;;12.75;5.25;;;;;;;;;;4991702;28;20069;-90
2022/03/21 07:50:19;;;;;;;7.47;3.75;;;;;;;;;;4989573;28;20061;-90
2022/03/21 07:52:57;;;;;;;8.00;3.75;;;;;;;;;;4990524;28;20022;-88
2022/03/21 07:55:24;;;;;;;12.98;3.40;;;;;;;;;;4984021;28;20108;-89
2022/03/21 07:57:51;;;;;;;10.57;4.32;;;;;;;;;;4987590;28;20078;-90
2022/03/21 08:00:19;;;;;;;8.93;4.60;;;;;;;;;;4992384;28;20477;-90
2022/03/21 08:02:51;;;;;;;8.05;3.92;;;;;;;;;;4992998;28;20949;-90
2022/03/21 08:05:24;;;;;;;13.68;4.70;;;;;;;;;;4645558;28;10000218;-89
2022/03/21 08:08:09;;;;;;;9.20;3.53;;;;;;;;;;4987182;28;20406;-90
2022/03/21 08:10:47;;;;;;;15.07;4.45;;;;;;;;;;4932414;29;20051;-89
2022/03/21 08:13:20;;;;;;;8.80;4.20;;;;;;;;;;4969828;28;20498;-91
2022/03/21 08:16:20;;;;;;;11.93;4.50;;;;;;;;;;4995167;28;20034;-90
2022/03/21 08:18:57;;;;;;;11.82;4.85;;;;;;;;;;4943583;28;20030;-90
2022/03/21 08:21:24;;;;;;;10.80;4.38;;;;;;;;;;4971901;28;20029;-92
2022/03/21 08:24:00;;;;;;;10.25;4.63;;;;;;;;;;4989139;28;20055;-91
2022/03/21 08:26:27;;;;;;;8.90;4.18;;;;;;;;;;4993206;28;20420;-92
2022/03/21 08:29:12;;;;;;;8.63;4.65;;;;;;;;;;4984698;28;20493;-91
2022/03/21 08:31:38;;;;;;;8.23;4.18;;;;;;;;;;4993093;28;20041;-90
2022/03/21 08:34:11;;;;;;;12.32;4.43;;;;;;;;;;4992158;28;20378;-91
2022/03/21 08:36:37;;;;;;;11.75;4.35;;;;;;;;;;4988497;28;20038;-91
2022/03/21 08:39:04;;;;;;;6.80;3.83;;;;;;;;;;4990423;28;20118;-90
2022/03/21 08:41:31;;;;;;;8.43;3.63;;;;;;;;;;4988390;28;20027;-91
2022/03/21 08:44:07;;;;;;;7.65;3.80;;;;;;;;;;4971369;28;20069;-90
2022/03/21 08:46:35;;;;;;;6.78;3.40;;;;;;;;;;4992911;28;20034;-90
2022/03/21 08:51:54;;;;;;;7.38;2.88;;;;;;;;;;4994924;28;20389;-90
2022/03/21 08:54:20;;;;;;;8.00;3.60;;;;;;;;;;4989547;28;20081;-91
2022/03/21 08:56:54;;;;;;;14.80;3.53;;;;;;;;;;4991411;28;20030;-91
2022/03/21 08:59:20;;;;;;;9.38;3.70;;;;;;;;;;4977517;28;20038;-89
2022/03/21 09:01:53;;;;;;;7.65;3.55;;;;;;;;;;4984596;28;20065;-91
2022/03/21 09:04:22;;;;;;;10.00;3.92;;;;;;;;;;4989330;28;20031;-90
2022/03/21 09:06:51;;;;;;;12.75;4.80;;;;;;;;;;4976481;28;20543;-90
2022/03/21 09:09:18;;;;;;;9.18;4.28;;;;;;;;;;4976202;28;22224;-90
2022/03/21 09:11:46;;;;;;;10.23;5.22;;;;;;;;;;4992830;28;20050;-91
2022/03/21 09:14:12;;;;;;;11.77;5.32;;;;;;;;;;4992183;28;20527;-90
2022/03/21 09:16:50;;;;;;;9.93;5.05;;;;;;;;;;4977134;28;20033;-90
2022/03/21 09:19:18;;;;;;;10.93;5.50;;;;;;;;;;4985435;28;20027;-90
2022/03/21 09:22:03;;;;;;;18.35;7.10;;;;;;;;;;4994496;28;20489;-90
2022/03/21 09:24:29;;;;;;;14.02;6.97;;;;;;;;;;4976512;28;20041;-90
2022/03/21 09:26:59;;;;;;;13.50;6.03;;;;;;;;;;4997593;28;20029;-90
2022/03/21 09:29:25;;;;;;;28.15;9.68;;;;;;;;;;4993302;28;20114;-90
2022/03/21 09:31:52;;;;;;;34.42;12.02;;;;;;;;;;4979160;28;20026;-88
2022/03/21 09:34:19;;;;;;;30.95;11.95;;;;;;;;;;4990635;28;20037;-91
2022/03/21 09:36:46;;;;;;;31.33;13.10;;;;;;;;;;4993382;28;20030;-89
2022/03/21 09:39:14;;;;;;;37.25;14.13;;;;;;;;;;4977427;28;20038;-89
2022/03/21 09:41:42;;;;;;;34.40;14.77;;;;;;;;;;4996139;28;20022;-90
2022/03/21 09:44:10;;;;;;;33.63;15.18;;;;;;;;;;4992343;28;20041;-91
2022/03/21 09:46:49;;;;;;;37.58;14.48;;;;;;;;;;4994213;28;20050;-90
2022/03/21 09:52:11;;;;;;;37.58;14.63;;;;;;;;;;4992181;28;20118;-91
2022/03/21 09:54:38;;;;;;;34.42;14.82;;;;;;;;;;4988434;28;20038;-88
2022/03/21 09:57:05;;;;;;;27.40;12.88;;;;;;;;;;4993666;28;20038;-90
2022/03/21 09:59:33;;;;;;;32.63;13.80;;;;;;;;;;4977115;28;20031;-91
2022/03/21 10:02:21;;;;;;;26.05;12.20;;;;;;;;;;4999024;28;20022;-92
2022/03/21 10:04:47;;;;;;;29.38;12.38;;;;;;;;;;4977157;28;20553;-91
2022/03/21 10:07:27;;;;;;;34.10;13.30;;;;;;;;;;4990890;28;20470;-92
2022/03/21 10:10:06;;;;;;;33.05;13.40;;;;;;;;;;4989989;28;20030;-92
2022/03/21 10:12:33;;;;;;;28.88;12.93;;;;;;;;;;4989982;28;20030;-93
2022/03/21 10:14:59;;;;;;;27.30;12.23;;;;;;;;;;4988383;28;20038;-92
2022/03/21 10:17:31;;;;;;;27.05;12.23;;;;;;;;;;4984865;28;20031;-90
2022/03/21 10:19:58;;;;;;;25.90;11.73;;;;;;;;;;4975830;28;20050;-92
2022/03/21 10:22:34;;;;;;;19.27;9.23;;;;;;;;;;4968310;28;20030;-92
2022/03/21 10:25:04;;;;;;;24.70;9.10;;;;;;;;;;4992583;28;20022;-93
2022/03/21 10:27:36;;;;;;;18.20;8.52;;;;;;;;;;4991956;28;20093;-90
2022/03/21 10:30:08;;;;;;;18.02;7.95;;;;;;;;;;4990722;28;20026;-92
2022/03/21 10:32:44;;;;;;;15.63;6.82;;;;;;;;;;4993000;28;20038;-91
2022/03/21 10:35:22;;;;;;;16.50;7.47;;;;;;;;;;4992954;28;20371;-91
2022/03/21 10:37:53;;;;;;;17.75;7.10;;;;;;;;;;4977299;28;20474;-91
2022/03/21 10:40:30;;;;;;;12.27;6.93;;;;;;;;;;4974574;28;20113;-91
2022/03/21 10:42:57;;;;;;;16.00;7.40;;;;;;;;;;4989282;28;20110;-90
2022/03/21 10:45:35;;;;;;;14.20;7.95;;;;;;;;;;4992950;28;20034;-90
2022/03/21 10:48:06;;;;;;;16.45;7.65;;;;;;;;;;4991421;28;20466;-90
2022/03/21 10:50:34;;;;;;;11.07;6.03;;;;;;;;;;4976218;28;20031;-92
2022/03/21 10:53:34;;;;;;;14.80;5.90;;;;;;;;;;4976865;28;20023;-91
2022/03/21 10:56:03;;;;;;;10.00;5.88;;;;;;;;;;4979818;28;20022;-90
2022/03/21 10:58:50;;;;;;;14.50;6.40;;;;;;;;;;4976692;28;20035;-91
2022/03/21 11:01:17;;;;;;;13.77;6.13;;;;;;;;;;4989373;28;20473;-92
2022/03/21 11:03:45;;;;;;;12.18;5.45;;;;;;;;;;4977433;28;20023;-93
2022/03/21 11:06:30;;;;;;;11.77;5.93;;;;;;;;;;4973964;28;20037;-91
2022/03/21 11:08:57;;;;;;;14.65;7.45;;;;;;;;;;4996955;28;20088;-92
2022/03/21 11:11:24;;;;;;;16.15;6.80;;;;;;;;;;4983656;28;20437;-91
2022/03/21 11:14:23;;;;;;;16.88;7.30;;;;;;;;;;4992436;28;20026;-90
2022/03/21 11:16:51;;;;;;;12.50;6.55;;;;;;;;;;5001635;28;20031;-92
2022/03/21 11:19:29;;;;;;;14.05;6.18;;;;;;;;;;4981422;28;20041;-90
2022/03/21 11:21:55;;;;;;;14.05;6.53;;;;;;;;;;4980489;28;20025;-90
2022/03/21 11:24:39;;;;;;;14.65;6.95;;;;;;;;;;4978385;28;20080;-92
2022/03/21 11:27:27;;;;;;;14.75;7.30;;;;;;;;;;4994386;28;20080;-90
2022/03/21 11:30:01;;;;;;;15.82;7.40;;;;;;;;;;4994661;28;20126;-91
2022/03/21 11:32:41;;;;;;;17.17;7.07;;;;;;;;;;4992286;28;20113;-88
2022/03/21 11:35:08;;;;;;;15.15;7.43;;;;;;;;;;4994346;28;20050;-91
2022/03/21 11:37:47;;;;;;;18.23;9.23;;;;;;;;;;4994568;28;20058;-90
2022/03/21 11:40:26;;;;;;;22.80;9.52;;;;;;;;;;4994833;28;20027;-89
2022/03/21 11:42:56;;;;;;;23.40;10.18;;;;;;;;;;4986075;28;20031;-89
2022/03/21 11:45:27;;;;;;;16.17;8.80;;;;;;;;;;4995242;28;20839;-92
2022/03/21 11:48:12;;;;;;;19.27;9.20;;;;;;;;;;4979198;28;20057;-90
2022/03/21 11:50:39;;;;;;;20.55;8.63;;;;;;;;;;4988327;28;20027;-91
2022/03/21 11:53:07;;;;;;;26.35;8.57;;;;;;;;;;4995291;28;20030;-90
2022/03/21 11:55:46;;;;;;;18.23;9.43;;;;;;;;;;4993055;28;20986;-91
2022/03/21 11:58:25;;;;;;;20.30;10.60;;;;;;;;;;4999665;28;20034;-91
2022/03/21 12:01:15;;;;;;;22.48;10.45;;;;;;;;;;4993889;28;20030;-92
2022/03/21 12:03:43;;;;;;;19.60;10.25;;;;;;;;;;4982180;28;20532;-91
2022/03/21 12:06:26;;;;;;;21.73;10.45;;;;;;;;;;4991848;28;20023;-91
2022/03/21 12:08:53;;;;;;;24.52;11.43;;;;;;;;;;4992517;28;20034;-89
2022/03/21 12:11:48;;;;;;;24.55;10.60;;;;;;;;;;4995327;28;20030;-89
2022/03/21 12:14:54;;;;;;;30.40;11.70;;;;;;;;;;4982928;28;20475;-90
2022/03/21 12:17:24;;;;;;;27.75;11.95;;;;;;;;;;4973215;28;20038;-90
2022/03/21 12:20:02;;;;;;;27.05;10.73;;;;;;;;;;4997513;28;20030;-90
2022/03/21 12:22:32;;;;;;;25.20;11.57;;;;;;;;;;4994538;28;20049;-89
2022/03/21 12:27:52;;;;;;;26.70;10.35;;;;;;;;;;4984939;28;20042;-90
2022/03/21 12:30:48;;;;;;;23.75;11.45;;;;;;;;;;4977653;28;20030;-91
2022/03/21 12:33:15;;;;;;;26.80;12.50;;;;;;;;;;4991946;28;20034;-92
2022/03/21 12:35:45;;;;;;;25.77;14.20;;;;;;;;;;4995475;28;20038;-91
2022/03/21 12:38:21;;;;;;;30.02;15.55;;;;;;;;;;4994806;28;20026;-89
2022/03/21 12:41:00;;;;;;;25.92;12.85;;;;;;;;;;4995051;28;20023;-91
2022/03/21 12:43:27;;;;;;;31.52;17.50;;;;;;;;;;4988316;28;20026;-89
2022/03/21 12:45:58;;;;;;;34.95;20.85;;;;;;;;;;4994672;28;20029;-89
2022/03/21 12:48:54;;;;;;;36.53;18.90;;;;;;;;;;4971976;28;20049;-90
2022/03/21 12:51:39;;;;;;;100.72;51.28;;;;;;;;;;4938542;29;20063;-87
2022/03/21 12:54:06;;;;;;;74.13;41.80;;;;;;;;;;4923353;29;20027;-88
2022/03/21 12:56:33;;;;;;;73.20;41.78;;;;;;;;;;4952823;29;20031;-88
2022/03/21 12:59:09;;;;;;;48.33;23.70;;;;;;;;;;4932658;29;20119;-88
2022/03/21 13:10:33;;;;;;;29.42;13.88;;;;;;;;;;4993640;28;20056;-87
2022/03/21 13:13:04;;;;;;;32.13;14.77;;;;;;;;;;4986790;28;20026;-88
2022/03/21 13:15:41;;;;;;;33.13;15.25;;;;;;;;;;4981578;28;20065;-88
2022/03/21 13:18:07;;;;;;;38.33;17.52;;;;;;;;;;4993091;28;20477;-89
2022/03/21 13:20:41;;;;;;;33.65;16.73;;;;;;;;;;4979718;28;20077;-88
2022/03/21 13:23:07;;;;;;;38.08;17.00;;;;;;;;;;4992607;28;20022;-89
2022/03/21 13:25:39;;;;;;;37.13;16.25;;;;;;;;;;4991808;28;20042;-89
2022/03/21 13:28:08;;;;;;;34.63;17.08;;;;;;;;;;4990395;28;20027;-88
2022/03/21 13:30:39;;;;;;;32.00;15.52;;;;;;;;;;4987185;28;20118;-90
2022/03/21 13:33:06;;;;;;;37.28;17.92;;;;;;;;;;4977614;28;20034;-87
2022/03/21 13:35:32;;;;;;;40.75;16.83;;;;;;;;;;4648944;28;10000501;-88
2022/03/21 13:38:03;;;;;;;28.42;15.68;;;;;;;;;;4968241;28;20049;-88
2022/03/21 13:40:30;;;;;;;29.73;15.90;;;;;;;;;;4973421;28;20366;-87
2022/03/21 13:43:16;;;;;;;36.60;17.90;;;;;;;;;;4974485;28;20034;-89
2022/03/21 13:45:42;;;;;;;32.97;16.67;;;;;;;;;;4990104;28;20026;-90
2022/03/21 13:48:09;;;;;;;39.95;22.00;;;;;;;;;;4989266;28;20046;-90
2022/03/21 13:50:39;;;;;;;44.25;23.40;;;;;;;;;;4983200;28;20042;-90
2022/03/21 13:55:59;;;;;;;38.28;18.65;;;;;;;;;;4992114;28;20081;-89
2022/03/21 13:58:29;;;;;;;31.98;17.63;;;;;;;;;;4986549;28;20026;-87
2022/03/21 14:00:57;;;;;;;39.45;18.98;;;;;;;;;;4972914;28;20029;-87
2022/03/21 14:03:36;;;;;;;39.95;21.50;;;;;;;;;;4972367;28;20038;-88
2022/03/21 14:06:04;;;;;;;43.58;22.38;;;;;;;;;;4990519;28;20046;-87
2022/03/21 14:08:31;;;;;;;52.20;25.75;;;;;;;;;;4994315;28;20056;-87
2022/03/21 14:11:05;;;;;;;59.13;28.10;;;;;;;;;;4977778;28;20076;-88
2022/03/21 14:13:53;;;;;;;66.47;31.77;;;;;;;;;;4976203;28;20445;-88
2022/03/21 14:16:19;;;;;;;58.40;28.88;;;;;;;;;;4979971;28;20038;-87
2022/03/21 14:18:59;;;;;;;60.03;28.50;;;;;;;;;;4960125;28;20100;-88
2022/03/21 14:21:30;;;;;;;46.08;25.13;;;;;;;;;;4983899;28;20378;-88
2022/03/21 14:23:58;;;;;;;45.85;23.38;;;;;;;;;;4989969;28;20081;-89
2022/03/21 14:26:33;;;;;;;41.88;21.25;;;;;;;;;;4975344;28;20370;-88
2022/03/21 14:29:06;;;;;;;39.58;19.60;;;;;;;;;;4992138;28;20486;-88
2022/03/21 14:31:32;;;;;;;31.02;16.92;;;;;;;;;;4986234;28;20481;-88
2022/03/21 14:33:59;;;;;;;28.65;15.45;;;;;;;;;;4975688;28;20040;-88
2022/03/21 14:36:31;;;;;;;26.90;14.40;;;;;;;;;;4974430;28;20030;-88
2022/03/21 14:38:58;;;;;;;24.42;13.57;;;;;;;;;;4986475;28;20026;-87
2022/03/21 14:41:24;;;;;;;25.17;13.27;;;;;;;;;;5000443;28;20473;-88
2022/03/21 14:43:51;;;;;;;28.20;13.45;;;;;;;;;;4982126;28;20034;-88
2022/03/21 14:46:20;;;;;;;30.80;13.90;;;;;;;;;;4982095;28;20054;-88
2022/03/21 14:48:47;;;;;;;32.25;15.18;;;;;;;;;;4995683;28;20497;-89
2022/03/21 14:51:13;;;;;;;40.55;19.77;;;;;;;;;;4992424;28;20065;-89
2022/03/21 14:53:41;;;;;;;39.95;19.25;;;;;;;;;;4998436;28;20109;-89
2022/03/21 14:56:08;;;;;;;43.33;20.85;;;;;;;;;;4992537;28;20114;-90
2022/03/21 15:01:30;;;;;;;37.40;19.55;;;;;;;;;;4995726;28;20038;-89
2022/03/21 15:03:59;;;;;;;39.13;19.90;;;;;;;;;;4990873;28;20114;-88
2022/03/21 15:06:25;;;;;;;41.70;19.02;;;;;;;;;;4996845;28;20022;-90
2022/03/21 15:08:57;;;;;;;35.55;18.50;;;;;;;;;;4998391;28;20034;-89
2022/03/21 15:11:23;;;;;;;37.35;18.65;;;;;;;;;;4995512;28;20122;-86
2022/03/21 15:13:51;;;;;;;47.95;20.02;;;;;;;;;;4988223;28;20035;-86
2022/03/21 15:16:20;;;;;;;39.80;20.63;;;;;;;;;;4998818;28;20432;-87
2022/03/21 15:18:46;;;;;;;39.97;20.10;;;;;;;;;;4996036;28;20056;-87
2022/03/21 15:21:13;;;;;;;51.60;24.60;;;;;;;;;;4997500;28;20037;-87
2022/03/21 15:23:40;;;;;;;59.50;27.30;;;;;;;;;;4994002;28;20081;-86
2022/03/21 15:26:19;;;;;;;61.10;28.48;;;;;;;;;;4994886;28;20023;-87
2022/03/21 15:28:45;;;;;;;52.92;25.08;;;;;;;;;;4979724;28;20034;-86
2022/03/21 15:31:13;;;;;;;53.17;26.23;;;;;;;;;;4981161;28;20438;-87
2022/03/21 15:33:41;;;;;;;52.53;24.05;;;;;;;;;;5001141;28;20057;-86
2022/03/21 15:42:11;;;;;;;32.40;14.48;;;;;;;;;;4978640;28;20037;-89
2022/03/21 15:45:15;;;;;;;29.33;13.68;;;;;;;;;;4981056;28;20031;-89
2022/03/21 15:47:42;;;;;;;27.45;11.43;;;;;;;;;;4913607;29;20131;-88
2022/03/21 15:50:20;;;;;;;22.50;9.98;;;;;;;;;;4954802;28;20140;-89
2022/03/21 15:52:47;;;;;;;21.40;9.23;;;;;;;;;;4994704;28;20062;-88
2022/03/21 15:55:16;;;;;;;22.42;8.82;;;;;;;;;;4990483;28;20041;-91
2022/03/21 15:57:44;;;;;;;19.33;8.98;;;;;;;;;;4994353;28;20030;-88
2022/03/21 16:00:15;;;;;;;61.83;24.65;;;;;;;;;;4991171;28;20073;-90
2022/03/21 16:02:49;;;;;;;50.55;21.63;;;;;;;;;;4978689;28;20030;-90
2022/03/21 16:05:15;;;;;;;48.17;20.73;;;;;;;;;;4991668;28;20062;-90
2022/03/21 16:07:53;;;;;;;45.22;20.67;;;;;;;;;;4987738;28;20033;-89
2022/03/21 16:10:19;;;;;;;40.10;18.45;;;;;;;;;;4979606;28;20030;-92
2022/03/21 16:12:47;;;;;;;52.28;21.27;;;;;;;;;;4979633;28;20057;-90
2022/03/21 16:15:14;;;;;;;45.08;20.70;;;;;;;;;;4977842;28;20033;-90
2022/03/21 16:18:09;;;;;;;53.13;22.60;;;;;;;;;;4993579;28;20130;-90
2022/03/21 16:20:40;;;;;;;46.72;23.83;;;;;;;;;;4994608;28;20057;-89
2022/03/21 16:23:07;;;;;;;56.85;25.38;;;;;;;;;;4638558;28;10001472;-90
2022/03/21 16:25:34;;;;;;;63.47;30.55;;;;;;;;;;4979005;28;20026;-91
2022/03/21 16:28:00;;;;;;;67.38;31.40;;;;;;;;;;4990434;28;20023;-90
2022/03/21 16:30:27;;;;;;;70.43;33.25;;;;;;;;;;4990781;28;20031;-91
2022/03/21 16:32:55;;;;;;;70.43;35.47;;;;;;;;;;4994650;28;20027;-91
2022/03/21 16:35:22;;;;;;;54.55;30.33;;;;;;;;;;4979260;28;20473;-90
2022/03/21 16:38:04;;;;;;;59.65;31.83;;;;;;;;;;4989462;28;20027;-90
2022/03/21 16:40:30;;;;;;;62.15;31.17;;;;;;;;;;4989307;28;20473;-90
2022/03/21 16:42:56;;;;;;;56.40;30.77;;;;;;;;;;4976881;28;20070;-90
2022/03/21 16:45:25;;;;;;;66.68;32.22;;;;;;;;;;4993806;28;20070;-91
2022/03/21 16:47:54;;;;;;;58.33;33.00;;;;;;;;;;4989649;28;20482;-92
2022/03/21 16:50:21;;;;;;;57.25;31.45;;;;;;;;;;4994178;28;20132;-89
2022/03/21 16:52:48;;;;;;;43.40;24.20;;;;;;;;;;4990599;28;20031;-89
2022/03/21 16:55:16;;;;;;;27.13;17.00;;;;;;;;;;4995064;28;20026;-92
2022/03/21 16:57:43;;;;;;;26.30;16.25;;;;;;;;;;4984347;28;20035;-89
2022/03/21 17:00:12;;;;;;;30.65;18.02;;;;;;;;;;4995020;28;20116;-88
2022/03/21 17:02:39;;;;;;;35.45;19.70;;;;;;;;;;4993607;28;20018;-90
2022/03/21 17:05:11;;;;;;;31.23;18.88;;;;;;;;;;4994365;28;20113;-90
2022/03/21 17:07:45;;;;;;;36.47;22.50;;;;;;;;;;4992180;28;20109;-90
2022/03/21 17:13:22;;;;;;;31.50;18.95;;;;;;;;;;4991584;28;20053;-93
2022/03/21 17:15:48;;;;;;;27.30;16.38;;;;;;;;;;4981843;28;20109;-90
2022/03/21 17:27:20;;;;;;;36.80;21.95;;;;;;;;;;4977858;28;20085;-89
2022/03/21 17:29:47;;;;;;;37.88;23.42;;;;;;;;;;4977675;28;20033;-87
2022/03/21 17:32:14;;;;;;;39.03;23.30;;;;;;;;;;4994111;28;20500;-89
2022/03/21 17:35:16;;;;;;;35.80;21.38;;;;;;;;;;4987711;28;20023;-89
2022/03/21 17:37:43;;;;;;;34.95;19.95;;;;;;;;;;4981000;28;20030;-88
2022/03/21 17:40:16;;;;;;;44.90;26.35;;;;;;;;;;4986640;28;20035;-89
2022/03/21 17:42:43;;;;;;;37.85;20.67;;;;;;;;;;4964190;28;20022;-90
2022/03/21 17:45:14;;;;;;;31.20;18.83;;;;;;;;;;4977750;28;20030;-92
2022/03/21 17:47:40;;;;;;;31.33;16.48;;;;;;;;;;4991230;28;20038;-89
2022/03/21 17:50:22;;;;;;;33.40;19.17;;;;;;;;;;4991490;28;20035;-89
2022/03/21 17:52:49;;;;;;;41.55;21.10;;;;;;;;;;4974142;28;20069;-90
2022/03/21 17:55:45;;;;;;;33.00;18.30;;;;;;;;;;4992847;28;20023;-89
2022/03/21 17:58:17;;;;;;;34.38;18.60;;;;;;;;;;4974020;28;20037;-89
2022/03/21 18:00:45;;;;;;;33.55;18.58;;;;;;;;;;4990279;28;20072;-91
2022/03/21 18:03:11;;;;;;;46.10;23.17;;;;;;;;;;4973014;28;20502;-90
2022/03/21 18:05:41;;;;;;;42.53;23.67;;;;;;;;;;4990543;28;20061;-89
2022/03/21 18:08:16;;;;;;;42.90;20.80;;;;;;;;;;4982552;28;20030;-88
2022/03/21 18:10:43;;;;;;;36.05;20.00;;;;;;;;;;4989336;28;20047;-89
2022/03/21 18:13:20;;;;;;;27.90;17.55;;;;;;;;;;4966312;28;20030;-89
2022/03/21 18:15:46;;;;;;;24.02;13.88;;;;;;;;;;4992981;28;20035;-87
2022/03/21 18:18:31;;;;;;;22.90;13.77;;;;;;;;;;4990707;28;20041;-88
2022/03/21 18:20:59;;;;;;;21.38;12.50;;;;;;;;;;4975761;28;20019;-88
2022/03/21 18:23:26;;;;;;;20.35;11.65;;;;;;;;;;4991902;28;20497;-89
2022/03/21 18:25:53;;;;;;;22.52;12.80;;;;;;;;;;4992932;28;20027;-88
2022/03/21 18:31:37;;;;;;;26.33;14.07;;;;;;;;;;4994415;28;20029;-88
2022/03/21 18:34:03;;;;;;;28.17;15.23;;;;;;;;;;4988736;28;20054;-88
2022/03/21 18:36:42;;;;;;;30.48;17.27;;;;;;;;;;4982690;28;20390;-87
2022/03/21 18:39:09;;;;;;;32.80;18.95;;;;;;;;;;4990574;28;20462;-87
2022/03/21 18:41:36;;;;;;;36.72;20.92;;;;;;;;;;4975829;28;20026;-88
2022/03/21 18:44:24;;;;;;;35.67;18.52;;;;;;;;;;4968898;28;20021;-88
2022/03/21 18:46:50;;;;;;;35.92;18.23;;;;;;;;;;4973301;28;20030;-88
2022/03/21 18:49:17;;;;;;;27.95;15.70;;;;;;;;;;4991569;28;20054;-89
2022/03/21 18:51:50;;;;;;;27.60;15.90;;;;;;;;;;4988988;28;20045;-89
2022/03/21 18:54:16;;;;;;;27.75;16.50;;;;;;;;;;4969301;28;20031;-88
2022/03/21 18:56:42;;;;;;;27.63;15.88;;;;;;;;;;4973990;28;20025;-88
2022/03/21 18:59:18;;;;;;;28.98;16.08;;;;;;;;;;4976345;28;20034;-88
2022/03/21 19:01:44;;;;;;;27.52;14.75;;;;;;;;;;4992547;28;20029;-88
2022/03/21 19:04:32;;;;;;;26.02;13.68;;;;;;;;;;4966250;28;20470;-89
2022/03/21 19:07:03;;;;;;;21.75;12.23;;;;;;;;;;4986664;28;20446;-88
2022/03/21 19:09:40;;;;;;;20.83;10.75;;;;;;;;;;4991399;28;20030;-88
2022/03/21 19:12:08;;;;;;;18.33;9.68;;;;;;;;;;4646224;28;9999949;-88
2022/03/21 19:14:34;;;;;;;18.08;9.73;;;;;;;;;;4993031;28;20046;-88
2022/03/21 19:17:05;;;;;;;21.23;11.05;;;;;;;;;;4976028;28;20053;-87
2022/03/21 19:19:36;;;;;;;18.95;10.38;;;;;;;;;;4993162;28;20034;-88
2022/03/21 19:22:02;;;;;;;19.20;10.55;;;;;;;;;;4988260;28;20031;-88
2022/03/21 19:24:36;;;;;;;24.80;12.50;;;;;;;;;;4979268;28;20475;-88
2022/03/21 19:27:04;;;;;;;24.98;12.00;;;;;;;;;;4993790;28;20046;-88
2022/03/21 19:29:30;;;;;;;23.70;13.38;;;;;;;;;;4994725;28;20039;-89
2022/03/21 19:32:15;;;;;;;23.05;12.57;;;;;;;;;;4995774;28;20018;-88
2022/03/21 19:34:41;;;;;;;23.83;12.55;;;;;;;;;;4987543;28;20034;-88
2022/03/21 19:37:25;;;;;;;23.83;13.80;;;;;;;;;;4992527;28;20026;-88
2022/03/21 19:39:52;;;;;;;23.08;13.80;;;;;;;;;;4991532;28;20030;-88
2022/03/21 19:42:43;;;;;;;23.58;14.05;;;;;;;;;;4996129;28;20022;-88
2022/03/21 19:45:14;;;;;;;27.15;15.40;;;;;;;;;;4996034;28;20029;-88
2022/03/21 19:47:45;;;;;;;23.90;13.27;;;;;;;;;;4995475;28;20034;-88
2022/03/21 19:50:12;;;;;;;26.48;14.93;;;;;;;;;;4993196;28;20117;-89
2022/03/21 19:53:13;;;;;;;28.65;16.08;;;;;;;;;;4992023;28;20119;-87
2022/03/21 19:55:39;;;;;;;30.80;17.58;;;;;;;;;;4992101;28;20042;-89
2022/03/21 19:58:17;;;;;;;29.33;15.60;;;;;;;;;;4977140;28;20062;-89
2022/03/21 20:00:45;;;;;;;24.20;12.95;;;;;;;;;;4977849;28;20105;-88
2022/03/21 20:06:07;;;;;;;16.38;9.73;;;;;;;;;;4970944;28;20027;-89
2022/03/21 20:08:35;;;;;;;16.08;9.30;;;;;;;;;;4988497;28;20030;-88
2022/03/21 20:11:01;;;;;;;13.57;8.30;;;;;;;;;;4975851;28;20034;-89
2022/03/21 20:13:28;;;;;;;15.35;9.38;;;;;;;;;;4988534;28;20104;-89
2022/03/21 20:16:18;;;;;;;16.27;8.85;;;;;;;;;;4976905;28;20074;-89
2022/03/21 20:18:44;;;;;;;18.23;9.05;;;;;;;;;;4975583;28;20496;-89
2022/03/21 20:27:17;;;;;;;17.83;9.43;;;;;;;;;;4975984;28;20106;-90
2022/03/21 20:29:47;;;;;;;16.50;8.88;;;;;;;;;;4972893;28;20027;-89
2022/03/21 20:32:16;;;;;;;13.90;8.05;;;;;;;;;;4975185;28;21588;-88
2022/03/21 20:35:01;;;;;;;16.90;8.38;;;;;;;;;;4978001;28;20050;-88
2022/03/21 20:37:30;;;;;;;17.63;9.95;;;;;;;;;;4977822;28;20031;-88
2022/03/21 20:40:12;;;;;;;17.05;9.10;;;;;;;;;;4975145;28;20022;-88
2022/03/21 20:42:39;;;;;;;15.50;8.20;;;;;;;;;;4991040;28;20047;-89
2022/03/21 20:45:20;;;;;;;16.80;8.98;;;;;;;;;;4973462;28;20477;-89
2022/03/21 20:47:47;;;;;;;19.88;10.20;;;;;;;;;;4988873;28;20027;-88
2022/03/21 20:50:15;;;;;;;16.67;8.45;;;;;;;;;;4983543;28;20564;-89
2022/03/21 20:52:44;;;;;;;15.95;9.25;;;;;;;;;;4978689;28;20019;-88
2022/03/21 20:55:10;;;;;;;17.40;9.13;;;;;;;;;;4991177;28;20031;-88
2022/03/21 20:57:38;;;;;;;18.90;10.18;;;;;;;;;;4990868;28;20035;-89
2022/03/21 21:00:05;;;;;;;19.80;10.38;;;;;;;;;;4991088;28;20022;-89
2022/03/21 21:02:34;;;;;;;17.48;9.65;;;;;;;;;;4958952;28;20524;-90
2022/03/21 21:05:00;;;;;;;21.33;11.40;;;;;;;;;;4990902;28;20118;-89
2022/03/21 21:07:27;;;;;;;17.15;8.93;;;;;;;;;;4986095;28;20027;-90
2022/03/21 21:12:39;;;;;;;17.20;9.43;;;;;;;;;;4971996;28;20042;-89
2022/03/21 21:15:07;;;;;;;19.05;9.90;;;;;;;;;;4973114;28;20437;-89
2022/03/21 21:18:03;;;;;;;20.15;10.32;;;;;;;;;;4979717;28;20355;-88
2022/03/21 21:20:31;;;;;;;15.25;8.90;;;;;;;;;;4932522;29;20303;-89
2022/03/21 21:22:58;;;;;;;17.95;10.65;;;;;;;;;;4942828;29;20031;-90
2022/03/21 21:25:24;;;;;;;20.88;11.27;;;;;;;;;;4971269;28;20031;-89
2022/03/21 21:28:04;;;;;;;19.77;11.38;;;;;;;;;;4990568;28;20030;-90
2022/03/21 21:30:30;;;;;;;17.63;10.27;;;;;;;;;;4988619;28;20043;-90
2022/03/21 21:32:57;;;;;;;17.83;10.43;;;;;;;;;;4990549;28;20034;-89
2022/03/21 21:35:38;;;;;;;21.60;12.40;;;;;;;;;;4989618;28;20033;-89
2022/03/21 21:38:05;;;;;;;21.23;11.80;;;;;;;;;;4989689;28;20125;-89
2022/03/21 21:40:34;;;;;;;25.80;14.63;;;;;;;;;;4988313;28;20037;-89
2022/03/21 21:43:01;;;;;;;25.80;14.85;;;;;;;;;;4989757;28;20110;-89
2022/03/21 21:45:57;;;;;;;27.85;15.85;;;;;;;;;;4971493;28;20039;-88
2022/03/21 21:48:29;;;;;;;32.85;19.55;;;;;;;;;;4910176;28;20069;-89
2022/03/21 21:50:56;;;;;;;37.17;20.33;;;;;;;;;;4987767;28;20047;-88
2022/03/21 21:53:51;;;;;;;33.95;18.65;;;;;;;;;;4974362;28;20027;-88
2022/03/21 21:56:17;;;;;;;31.08;17.02;;;;;;;;;;4963194;28;20478;-88
2022/03/21 22:01:48;;;;;;;30.95;15.95;;;;;;;;;;4982069;28;20516;-89
2022/03/21 22:04:15;;;;;;;31.23;17.63;;;;;;;;;;4975843;28;20470;-88
2022/03/21 22:07:00;;;;;;;33.72;19.45;;;;;;;;;;4983418;28;20031;-88
2022/03/21 22:09:30;;;;;;;32.85;17.73;;;;;;;;;;4989275;28;20452;-88
2022/03/21 22:12:03;;;;;;;33.13;18.05;;;;;;;;;;4989927;28;20038;-88
2022/03/21 22:14:30;;;;;;;29.23;16.30;;;;;;;;;;4990280;28;20058;-89
2022/03/21 22:17:08;;;;;;;28.80;14.75;;;;;;;;;;4989537;28;20050;-88
2022/03/21 22:19:34;;;;;;;26.58;14.30;;;;;;;;;;4967894;28;20038;-89
2022/03/21 22:22:06;;;;;;;29.80;16.52;;;;;;;;;;4989125;28;20054;-89
2022/03/21 22:24:32;;;;;;;29.02;16.02;;;;;;;;;;4989505;28;20053;-90
2022/03/21 22:26:59;;;;;;;27.63;14.80;;;;;;;;;;4989655;28;20019;-89
2022/03/21 22:29:32;;;;;;;26.88;14.60;;;;;;;;;;4983747;28;20034;-89
2022/03/21 22:31:59;;;;;;;28.85;15.10;;;;;;;;;;4973802;28;20525;-89
2022/03/21 22:34:31;;;;;;;29.50;15.43;;;;;;;;;;4989143;28;20532;-89
2022/03/21 22:36:58;;;;;;;33.65;16.67;;;;;;;;;;4989592;28;20030;-89
2022/03/21 22:39:27;;;;;;;29.60;16.90;;;;;;;;;;4989141;28;20030;-89